sensor_id;sensor_type;location;lat;lon;timestamp;P1;durP1;ratioP1;P2;durP2;ratioP2
14235;SDS011;7202;50.718;7.072;2023-06-14T00:01:03;5.95;;;5.35;;
14235;SDS011;7202;50.718;7.072;2023-06-14T00:03:34;7.60;;;6.03;;
14235;SDS011;7202;50.718;7.072;2023-06-14T00:06:03;6.28;;;5.68;;
14235;SDS011;7202;50.718;7.072;2023-06-14T00:08:32;8.52;;;5.95;;
14235;SDS011;7202;50.718;7.072;2023-06-14T00:11:00;8.02;;;5.63;;
14235;SDS011;7202;50.718;7.072;2023-06-14T00:13:29;5.95;;;5.35;;
14235;SDS011;7202;50.718;7.072;2023-06-14T00:15:58;7.13;;;6.45;;
14235;SDS011;7202;50.718;7.072;2023-06-14T00:18:26;7.00;;;6.30;;
14235;SDS011;7202;50.718;7.072;2023-06-14T00:20:57;8.05;;;5.85;;
14235;SDS011;7202;50.718;7.072;2023-06-14T00:23:26;6.90;;;5.72;;
14235;SDS011;7202;50.718;7.072;2023-06-14T00:25:55;6.03;;;5.43;;
14235;SDS011;7202;50.718;7.072;2023-06-14T00:28:23;6.57;;;5.90;;
14235;SDS011;7202;50.718;7.072;2023-06-14T00:30:52;7.68;;;6.18;;
14235;SDS011;7202;50.718;7.072;2023-06-14T00:33:20;7.75;;;6.28;;
14235;SDS011;7202;50.718;7.072;2023-06-14T00:35:49;7.18;;;6.13;;
14235;SDS011;7202;50.718;7.072;2023-06-14T00:38:22;6.18;;;5.25;;
14235;SDS011;7202;50.718;7.072;2023-06-14T00:40:50;9.45;;;6.00;;
14235;SDS011;7202;50.718;7.072;2023-06-14T00:43:19;10.02;;;5.70;;
14235;SDS011;7202;50.718;7.072;2023-06-14T00:45:48;6.68;;;6.07;;
14235;SDS011;7202;50.718;7.072;2023-06-14T00:48:18;6.82;;;5.55;;
14235;SDS011;7202;50.718;7.072;2023-06-14T00:50:47;11.52;;;6.30;;
14235;SDS011;7202;50.718;7.072;2023-06-14T00:53:18;6.60;;;5.75;;
14235;SDS011;7202;50.718;7.072;2023-06-14T00:55:52;6.47;;;5.65;;
14235;SDS011;7202;50.718;7.072;2023-06-14T00:58:21;6.63;;;6.00;;
14235;SDS011;7202;50.718;7.072;2023-06-14T01:00:50;6.68;;;5.82;;
14235;SDS011;7202;50.718;7.072;2023-06-14T01:03:19;6.00;;;5.20;;
14235;SDS011;7202;50.718;7.072;2023-06-14T01:05:49;6.68;;;5.75;;
14235;SDS011;7202;50.718;7.072;2023-06-14T01:08:23;6.30;;;5.70;;
14235;SDS011;7202;50.718;7.072;2023-06-14T01:10:59;5.60;;;5.00;;
14235;SDS011;7202;50.718;7.072;2023-06-14T01:13:33;8.43;;;5.82;;
14235;SDS011;7202;50.718;7.072;2023-06-14T01:16:03;6.60;;;5.65;;
14235;SDS011;7202;50.718;7.072;2023-06-14T01:18:34;6.75;;;5.82;;
14235;SDS011;7202;50.718;7.072;2023-06-14T01:21:03;10.95;;;5.53;;
14235;SDS011;7202;50.718;7.072;2023-06-14T01:23:34;7.20;;;6.20;;
14235;SDS011;7202;50.718;7.072;2023-06-14T01:26:03;6.78;;;6.07;;
14235;SDS011;7202;50.718;7.072;2023-06-14T01:28:32;6.18;;;5.57;;
14235;SDS011;7202;50.718;7.072;2023-06-14T01:31:02;6.80;;;5.68;;
14235;SDS011;7202;50.718;7.072;2023-06-14T01:33:33;6.25;;;5.65;;
14235;SDS011;7202;50.718;7.072;2023-06-14T01:36:03;7.38;;;6.28;;
14235;SDS011;7202;50.718;7.072;2023-06-14T01:38:36;6.40;;;5.80;;
14235;SDS011;7202;50.718;7.072;2023-06-14T01:41:06;9.00;;;6.57;;
14235;SDS011;7202;50.718;7.072;2023-06-14T01:43:35;6.93;;;6.22;;
14235;SDS011;7202;50.718;7.072;2023-06-14T01:46:04;6.85;;;6.22;;
14235;SDS011;7202;50.718;7.072;2023-06-14T01:48:34;7.80;;;5.65;;
14235;SDS011;7202;50.718;7.072;2023-06-14T01:51:03;6.85;;;6.20;;
14235;SDS011;7202;50.718;7.072;2023-06-14T01:53:32;8.07;;;6.10;;
14235;SDS011;7202;50.718;7.072;2023-06-14T01:56:02;7.25;;;6.50;;
14235;SDS011;7202;50.718;7.072;2023-06-14T01:58:31;7.50;;;6.65;;
14235;SDS011;7202;50.718;7.072;2023-06-14T02:01:00;7.50;;;6.00;;
14235;SDS011;7202;50.718;7.072;2023-06-14T02:03:29;7.13;;;6.25;;
14235;SDS011;7202;50.718;7.072;2023-06-14T02:05:58;7.45;;;6.40;;
14235;SDS011;7202;50.718;7.072;2023-06-14T02:08:27;6.65;;;6.05;;
14235;SDS011;7202;50.718;7.072;2023-06-14T02:10:55;6.63;;;5.90;;
14235;SDS011;7202;50.718;7.072;2023-06-14T02:13:25;6.75;;;6.15;;
14235;SDS011;7202;50.718;7.072;2023-06-14T02:15:54;7.97;;;6.10;;
14235;SDS011;7202;50.718;7.072;2023-06-14T02:18:24;7.22;;;6.53;;
14235;SDS011;7202;50.718;7.072;2023-06-14T02:20:53;8.90;;;6.50;;
14235;SDS011;7202;50.718;7.072;2023-06-14T02:23:22;6.93;;;6.03;;
14235;SDS011;7202;50.718;7.072;2023-06-14T02:25:50;8.90;;;5.80;;
14235;SDS011;7202;50.718;7.072;2023-06-14T02:28:19;7.20;;;6.28;;
14235;SDS011;7202;50.718;7.072;2023-06-14T02:30:49;6.65;;;5.95;;
14235;SDS011;7202;50.718;7.072;2023-06-14T02:33:22;7.50;;;6.20;;
14235;SDS011;7202;50.718;7.072;2023-06-14T02:35:52;6.35;;;5.75;;
14235;SDS011;7202;50.718;7.072;2023-06-14T02:38:23;7.60;;;6.80;;
14235;SDS011;7202;50.718;7.072;2023-06-14T02:40:52;7.32;;;6.63;;
14235;SDS011;7202;50.718;7.072;2023-06-14T02:43:21;7.20;;;6.50;;
14235;SDS011;7202;50.718;7.072;2023-06-14T02:45:51;6.70;;;6.07;;
14235;SDS011;7202;50.718;7.072;2023-06-14T02:48:20;7.45;;;6.20;;
14235;SDS011;7202;50.718;7.072;2023-06-14T02:50:49;7.55;;;6.43;;
14235;SDS011;7202;50.718;7.072;2023-06-14T02:53:18;7.55;;;6.57;;
14235;SDS011;7202;50.718;7.072;2023-06-14T02:55:47;9.02;;;6.70;;
14235;SDS011;7202;50.718;7.072;2023-06-14T02:58:16;9.15;;;6.70;;
14235;SDS011;7202;50.718;7.072;2023-06-14T03:00:45;9.95;;;6.80;;
14235;SDS011;7202;50.718;7.072;2023-06-14T03:03:15;8.52;;;6.38;;
14235;SDS011;7202;50.718;7.072;2023-06-14T03:05:51;8.25;;;6.85;;
14235;SDS011;7202;50.718;7.072;2023-06-14T03:08:24;6.45;;;5.80;;
14235;SDS011;7202;50.718;7.072;2023-06-14T03:10:55;7.10;;;6.40;;
14235;SDS011;7202;50.718;7.072;2023-06-14T03:13:25;10.00;;;7.03;;
14235;SDS011;7202;50.718;7.072;2023-06-14T03:15:54;6.90;;;6.13;;
14235;SDS011;7202;50.718;7.072;2023-06-14T03:18:24;7.40;;;6.68;;
14235;SDS011;7202;50.718;7.072;2023-06-14T03:20:55;7.70;;;6.70;;
14235;SDS011;7202;50.718;7.072;2023-06-14T03:23:26;7.88;;;7.07;;
14235;SDS011;7202;50.718;7.072;2023-06-14T03:25:55;7.50;;;6.80;;
14235;SDS011;7202;50.718;7.072;2023-06-14T03:28:24;7.45;;;6.70;;
14235;SDS011;7202;50.718;7.072;2023-06-14T03:30:54;7.43;;;6.70;;
14235;SDS011;7202;50.718;7.072;2023-06-14T03:33:26;7.68;;;6.25;;
14235;SDS011;7202;50.718;7.072;2023-06-14T03:35:55;7.35;;;6.38;;
14235;SDS011;7202;50.718;7.072;2023-06-14T03:38:24;7.45;;;6.40;;
14235;SDS011;7202;50.718;7.072;2023-06-14T03:40:53;7.57;;;6.70;;
14235;SDS011;7202;50.718;7.072;2023-06-14T03:43:21;9.70;;;6.22;;
14235;SDS011;7202;50.718;7.072;2023-06-14T03:45:50;6.88;;;6.18;;
14235;SDS011;7202;50.718;7.072;2023-06-14T03:48:21;7.57;;;6.65;;
14235;SDS011;7202;50.718;7.072;2023-06-14T03:50:52;8.10;;;6.70;;
14235;SDS011;7202;50.718;7.072;2023-06-14T03:53:27;8.43;;;6.80;;
14235;SDS011;7202;50.718;7.072;2023-06-14T03:55:57;7.10;;;6.40;;
14235;SDS011;7202;50.718;7.072;2023-06-14T03:58:35;7.55;;;6.65;;
14235;SDS011;7202;50.718;7.072;2023-06-14T04:01:04;7.95;;;7.15;;
14235;SDS011;7202;50.718;7.072;2023-06-14T04:03:33;7.57;;;6.60;;
14235;SDS011;7202;50.718;7.072;2023-06-14T04:06:05;7.85;;;6.47;;
14235;SDS011;7202;50.718;7.072;2023-06-14T04:08:34;8.63;;;6.88;;
14235;SDS011;7202;50.718;7.072;2023-06-14T04:11:03;7.75;;;6.25;;
14235;SDS011;7202;50.718;7.072;2023-06-14T04:13:34;8.00;;;6.20;;
14235;SDS011;7202;50.718;7.072;2023-06-14T04:16:04;6.47;;;5.88;;
14235;SDS011;7202;50.718;7.072;2023-06-14T04:18:35;7.85;;;5.97;;
14235;SDS011;7202;50.718;7.072;2023-06-14T04:21:05;8.65;;;6.53;;
14235;SDS011;7202;50.718;7.072;2023-06-14T04:23:35;7.60;;;6.53;;
14235;SDS011;7202;50.718;7.072;2023-06-14T04:26:05;7.75;;;6.78;;
14235;SDS011;7202;50.718;7.072;2023-06-14T04:28:33;7.38;;;6.60;;
14235;SDS011;7202;50.718;7.072;2023-06-14T04:31:09;8.25;;;6.28;;
14235;SDS011;7202;50.718;7.072;2023-06-14T04:33:38;7.65;;;6.50;;
14235;SDS011;7202;50.718;7.072;2023-06-14T04:36:16;8.75;;;6.63;;
14235;SDS011;7202;50.718;7.072;2023-06-14T04:38:47;8.55;;;6.40;;
14235;SDS011;7202;50.718;7.072;2023-06-14T04:41:16;8.77;;;6.55;;
14235;SDS011;7202;50.718;7.072;2023-06-14T04:43:46;7.82;;;7.05;;
14235;SDS011;7202;50.718;7.072;2023-06-14T04:46:16;8.15;;;6.70;;
14235;SDS011;7202;50.718;7.072;2023-06-14T04:48:45;7.25;;;6.55;;
14235;SDS011;7202;50.718;7.072;2023-06-14T04:51:18;10.88;;;6.95;;
14235;SDS011;7202;50.718;7.072;2023-06-14T04:53:49;7.85;;;6.70;;
14235;SDS011;7202;50.718;7.072;2023-06-14T04:56:18;7.78;;;6.97;;
14235;SDS011;7202;50.718;7.072;2023-06-14T04:58:48;11.93;;;6.50;;
14235;SDS011;7202;50.718;7.072;2023-06-14T05:01:16;10.95;;;6.70;;
14235;SDS011;7202;50.718;7.072;2023-06-14T05:03:45;7.93;;;6.97;;
14235;SDS011;7202;50.718;7.072;2023-06-14T05:06:16;9.05;;;6.78;;
14235;SDS011;7202;50.718;7.072;2023-06-14T05:08:46;7.38;;;6.68;;
14235;SDS011;7202;50.718;7.072;2023-06-14T05:11:15;10.18;;;7.85;;
14235;SDS011;7202;50.718;7.072;2023-06-14T05:13:45;9.15;;;6.30;;
14235;SDS011;7202;50.718;7.072;2023-06-14T05:16:14;11.63;;;7.03;;
14235;SDS011;7202;50.718;7.072;2023-06-14T05:18:47;8.30;;;6.32;;
14235;SDS011;7202;50.718;7.072;2023-06-14T05:21:17;9.98;;;6.65;;
14235;SDS011;7202;50.718;7.072;2023-06-14T05:23:47;9.15;;;6.75;;
14235;SDS011;7202;50.718;7.072;2023-06-14T05:26:17;7.50;;;6.35;;
14235;SDS011;7202;50.718;7.072;2023-06-14T05:28:47;7.85;;;7.05;;
14235;SDS011;7202;50.718;7.072;2023-06-14T05:31:16;9.10;;;6.07;;
14235;SDS011;7202;50.718;7.072;2023-06-14T05:33:45;9.50;;;6.85;;
14235;SDS011;7202;50.718;7.072;2023-06-14T05:36:14;9.77;;;7.00;;
14235;SDS011;7202;50.718;7.072;2023-06-14T05:38:44;7.25;;;5.88;;
14235;SDS011;7202;50.718;7.072;2023-06-14T05:41:13;10.45;;;6.07;;
14235;SDS011;7202;50.718;7.072;2023-06-14T05:43:42;7.28;;;6.07;;
14235;SDS011;7202;50.718;7.072;2023-06-14T05:46:10;8.18;;;6.47;;
14235;SDS011;7202;50.718;7.072;2023-06-14T05:48:39;5.75;;;5.20;;
14235;SDS011;7202;50.718;7.072;2023-06-14T05:51:08;6.38;;;4.93;;
14235;SDS011;7202;50.718;7.072;2023-06-14T05:53:37;10.45;;;5.50;;
14235;SDS011;7202;50.718;7.072;2023-06-14T05:56:08;5.15;;;4.43;;
14235;SDS011;7202;50.718;7.072;2023-06-14T05:58:36;6.32;;;4.15;;
14235;SDS011;7202;50.718;7.072;2023-06-14T06:01:05;9.30;;;4.43;;
14235;SDS011;7202;50.718;7.072;2023-06-14T06:03:34;5.68;;;4.63;;
14235;SDS011;7202;50.718;7.072;2023-06-14T06:06:03;5.07;;;3.90;;
14235;SDS011;7202;50.718;7.072;2023-06-14T06:08:31;9.55;;;4.95;;
14235;SDS011;7202;50.718;7.072;2023-06-14T06:11:01;5.05;;;4.15;;
14235;SDS011;7202;50.718;7.072;2023-06-14T06:13:30;8.43;;;4.60;;
14235;SDS011;7202;50.718;7.072;2023-06-14T06:15:59;6.20;;;4.32;;
14235;SDS011;7202;50.718;7.072;2023-06-14T06:18:28;9.75;;;5.20;;
14235;SDS011;7202;50.718;7.072;2023-06-14T06:20:57;4.70;;;4.13;;
14235;SDS011;7202;50.718;7.072;2023-06-14T06:23:26;6.07;;;4.00;;
14235;SDS011;7202;50.718;7.072;2023-06-14T06:25:54;7.68;;;4.55;;
14235;SDS011;7202;50.718;7.072;2023-06-14T06:28:26;7.18;;;4.38;;
14235;SDS011;7202;50.718;7.072;2023-06-14T06:30:56;9.77;;;4.32;;
14235;SDS011;7202;50.718;7.072;2023-06-14T06:33:24;5.43;;;4.28;;
14235;SDS011;7202;50.718;7.072;2023-06-14T06:35:53;8.23;;;4.15;;
14235;SDS011;7202;50.718;7.072;2023-06-14T06:38:22;7.70;;;4.53;;
14235;SDS011;7202;50.718;7.072;2023-06-14T06:40:53;6.35;;;4.10;;
14235;SDS011;7202;50.718;7.072;2023-06-14T06:43:23;6.22;;;3.90;;
14235;SDS011;7202;50.718;7.072;2023-06-14T06:45:52;9.95;;;4.03;;
14235;SDS011;7202;50.718;7.072;2023-06-14T06:48:22;5.93;;;4.32;;
14235;SDS011;7202;50.718;7.072;2023-06-14T06:50:51;8.13;;;4.05;;
14235;SDS011;7202;50.718;7.072;2023-06-14T06:53:19;7.63;;;3.80;;
14235;SDS011;7202;50.718;7.072;2023-06-14T06:56:04;5.95;;;3.50;;
14235;SDS011;7202;50.718;7.072;2023-06-14T06:58:33;7.95;;;4.22;;
14235;SDS011;7202;50.718;7.072;2023-06-14T07:01:02;4.32;;;3.88;;
14235;SDS011;7202;50.718;7.072;2023-06-14T07:03:32;6.35;;;3.70;;
14235;SDS011;7202;50.718;7.072;2023-06-14T07:06:00;5.13;;;3.85;;
14235;SDS011;7202;50.718;7.072;2023-06-14T07:08:29;5.90;;;4.25;;
14235;SDS011;7202;50.718;7.072;2023-06-14T07:10:58;5.50;;;3.83;;
14235;SDS011;7202;50.718;7.072;2023-06-14T07:13:26;5.25;;;3.70;;
14235;SDS011;7202;50.718;7.072;2023-06-14T07:15:56;6.03;;;3.75;;
14235;SDS011;7202;50.718;7.072;2023-06-14T07:18:26;5.90;;;3.45;;
14235;SDS011;7202;50.718;7.072;2023-06-14T07:20:56;6.05;;;3.58;;
14235;SDS011;7202;50.718;7.072;2023-06-14T07:23:25;4.00;;;3.45;;
14235;SDS011;7202;50.718;7.072;2023-06-14T07:25:54;4.60;;;3.10;;
14235;SDS011;7202;50.718;7.072;2023-06-14T07:28:23;5.97;;;2.97;;
14235;SDS011;7202;50.718;7.072;2023-06-14T07:30:51;6.50;;;4.55;;
14235;SDS011;7202;50.718;7.072;2023-06-14T07:33:20;3.33;;;3.03;;
14235;SDS011;7202;50.718;7.072;2023-06-14T07:35:48;4.45;;;3.42;;
14235;SDS011;7202;50.718;7.072;2023-06-14T07:38:20;4.32;;;3.08;;
14235;SDS011;7202;50.718;7.072;2023-06-14T07:40:49;4.97;;;3.22;;
14235;SDS011;7202;50.718;7.072;2023-06-14T07:43:17;5.03;;;3.00;;
14235;SDS011;7202;50.718;7.072;2023-06-14T07:45:48;6.03;;;2.97;;
14235;SDS011;7202;50.718;7.072;2023-06-14T07:48:32;3.45;;;2.72;;
14235;SDS011;7202;50.718;7.072;2023-06-14T07:51:01;3.53;;;2.90;;
14235;SDS011;7202;50.718;7.072;2023-06-14T07:53:32;4.95;;;3.22;;
14235;SDS011;7202;50.718;7.072;2023-06-14T07:56:00;5.70;;;2.70;;
14235;SDS011;7202;50.718;7.072;2023-06-14T07:58:29;7.78;;;2.75;;
14235;SDS011;7202;50.718;7.072;2023-06-14T08:00:58;6.72;;;2.75;;
14235;SDS011;7202;50.718;7.072;2023-06-14T08:03:28;3.58;;;2.83;;
14235;SDS011;7202;50.718;7.072;2023-06-14T08:05:57;4.30;;;2.70;;
14235;SDS011;7202;50.718;7.072;2023-06-14T08:08:27;3.15;;;2.58;;
14235;SDS011;7202;50.718;7.072;2023-06-14T08:10:57;5.20;;;2.40;;
14235;SDS011;7202;50.718;7.072;2023-06-14T08:13:26;6.32;;;2.72;;
14235;SDS011;7202;50.718;7.072;2023-06-14T08:15:55;2.80;;;2.50;;
14235;SDS011;7202;50.718;7.072;2023-06-14T08:18:24;4.07;;;2.22;;
14235;SDS011;7202;50.718;7.072;2023-06-14T08:20:56;2.72;;;2.22;;
14235;SDS011;7202;50.718;7.072;2023-06-14T08:23:25;4.97;;;2.17;;
14235;SDS011;7202;50.718;7.072;2023-06-14T08:25:54;3.38;;;2.10;;
14235;SDS011;7202;50.718;7.072;2023-06-14T08:28:25;2.33;;;1.90;;
14235;SDS011;7202;50.718;7.072;2023-06-14T08:30:53;3.03;;;2.20;;
14235;SDS011;7202;50.718;7.072;2023-06-14T08:33:22;5.22;;;2.58;;
14235;SDS011;7202;50.718;7.072;2023-06-14T08:35:51;2.63;;;2.15;;
14235;SDS011;7202;50.718;7.072;2023-06-14T08:38:20;4.47;;;2.13;;
14235;SDS011;7202;50.718;7.072;2023-06-14T08:40:50;2.28;;;2.03;;
14235;SDS011;7202;50.718;7.072;2023-06-14T08:43:20;3.10;;;2.20;;
14235;SDS011;7202;50.718;7.072;2023-06-14T08:45:50;3.55;;;2.10;;
14235;SDS011;7202;50.718;7.072;2023-06-14T08:48:23;2.28;;;2.08;;
14235;SDS011;7202;50.718;7.072;2023-06-14T08:50:54;3.03;;;1.90;;
14235;SDS011;7202;50.718;7.072;2023-06-14T08:53:29;3.42;;;2.30;;
14235;SDS011;7202;50.718;7.072;2023-06-14T08:56:04;2.53;;;2.30;;
14235;SDS011;7202;50.718;7.072;2023-06-14T08:58:34;2.13;;;1.92;;
14235;SDS011;7202;50.718;7.072;2023-06-14T09:01:06;2.60;;;2.20;;
14235;SDS011;7202;50.718;7.072;2023-06-14T09:03:36;2.45;;;1.95;;
14235;SDS011;7202;50.718;7.072;2023-06-14T09:06:08;2.42;;;1.92;;
14235;SDS011;7202;50.718;7.072;2023-06-14T09:08:42;2.30;;;1.90;;
14235;SDS011;7202;50.718;7.072;2023-06-14T09:11:11;3.50;;;2.13;;
14235;SDS011;7202;50.718;7.072;2023-06-14T09:13:41;6.25;;;1.85;;
14235;SDS011;7202;50.718;7.072;2023-06-14T09:16:11;3.83;;;2.00;;
14235;SDS011;7202;50.718;7.072;2023-06-14T09:18:41;4.43;;;2.28;;
14235;SDS011;7202;50.718;7.072;2023-06-14T09:21:11;1.88;;;1.67;;
14235;SDS011;7202;50.718;7.072;2023-06-14T09:23:40;3.83;;;2.17;;
14235;SDS011;7202;50.718;7.072;2023-06-14T09:26:10;3.55;;;2.00;;
14235;SDS011;7202;50.718;7.072;2023-06-14T09:28:43;6.85;;;1.88;;
14235;SDS011;7202;50.718;7.072;2023-06-14T09:31:14;4.22;;;2.50;;
14235;SDS011;7202;50.718;7.072;2023-06-14T09:33:45;2.97;;;2.20;;
14235;SDS011;7202;50.718;7.072;2023-06-14T09:36:16;3.38;;;2.10;;
14235;SDS011;7202;50.718;7.072;2023-06-14T09:38:51;3.70;;;2.08;;
14235;SDS011;7202;50.718;7.072;2023-06-14T09:41:21;5.03;;;1.85;;
14235;SDS011;7202;50.718;7.072;2023-06-14T09:44:00;3.65;;;2.00;;
14235;SDS011;7202;50.718;7.072;2023-06-14T09:46:36;2.78;;;1.85;;
14235;SDS011;7202;50.718;7.072;2023-06-14T09:49:05;3.80;;;1.55;;
14235;SDS011;7202;50.718;7.072;2023-06-14T09:51:36;4.45;;;1.85;;
14235;SDS011;7202;50.718;7.072;2023-06-14T09:54:12;2.22;;;1.90;;
14235;SDS011;7202;50.718;7.072;2023-06-14T09:56:44;3.78;;;2.00;;
14235;SDS011;7202;50.718;7.072;2023-06-14T09:59:16;3.97;;;1.92;;
14235;SDS011;7202;50.718;7.072;2023-06-14T10:01:55;4.22;;;1.88;;
14235;SDS011;7202;50.718;7.072;2023-06-14T10:04:27;2.83;;;1.70;;
14235;SDS011;7202;50.718;7.072;2023-06-14T10:06:58;2.88;;;1.90;;
14235;SDS011;7202;50.718;7.072;2023-06-14T10:09:29;2.92;;;1.88;;
14235;SDS011;7202;50.718;7.072;2023-06-14T10:11:59;3.08;;;1.70;;
14235;SDS011;7202;50.718;7.072;2023-06-14T10:14:28;1.95;;;1.75;;
14235;SDS011;7202;50.718;7.072;2023-06-14T10:17:00;2.65;;;1.92;;
14235;SDS011;7202;50.718;7.072;2023-06-14T10:19:37;1.90;;;1.75;;
14235;SDS011;7202;50.718;7.072;2023-06-14T10:22:12;2.33;;;1.98;;
14235;SDS011;7202;50.718;7.072;2023-06-14T10:24:46;5.28;;;1.85;;
14235;SDS011;7202;50.718;7.072;2023-06-14T10:27:17;3.20;;;2.10;;
14235;SDS011;7202;50.718;7.072;2023-06-14T10:30:03;2.88;;;2.08;;
14235;SDS011;7202;50.718;7.072;2023-06-14T10:32:36;3.05;;;2.35;;
14235;SDS011;7202;50.718;7.072;2023-06-14T10:35:31;3.33;;;2.28;;
14235;SDS011;7202;50.718;7.072;2023-06-14T10:38:06;2.95;;;1.95;;
14235;SDS011;7202;50.718;7.072;2023-06-14T10:40:36;3.83;;;2.03;;
14235;SDS011;7202;50.718;7.072;2023-06-14T10:43:22;3.30;;;1.98;;
14235;SDS011;7202;50.718;7.072;2023-06-14T10:48:46;4.40;;;2.17;;
14235;SDS011;7202;50.718;7.072;2023-06-14T10:51:16;3.53;;;1.98;;
14235;SDS011;7202;50.718;7.072;2023-06-14T10:53:47;6.45;;;2.10;;
14235;SDS011;7202;50.718;7.072;2023-06-14T10:56:23;4.18;;;2.45;;
14235;SDS011;7202;50.718;7.072;2023-06-14T10:58:55;3.28;;;2.10;;
14235;SDS011;7202;50.718;7.072;2023-06-14T11:04:13;4.20;;;2.00;;
14235;SDS011;7202;50.718;7.072;2023-06-14T11:06:45;2.17;;;1.88;;
14235;SDS011;7202;50.718;7.072;2023-06-14T11:09:29;3.13;;;2.00;;
14235;SDS011;7202;50.718;7.072;2023-06-14T11:12:20;2.50;;;2.28;;
14235;SDS011;7202;50.718;7.072;2023-06-14T11:14:50;3.80;;;2.13;;
14235;SDS011;7202;50.718;7.072;2023-06-14T11:17:20;10.70;;;2.20;;
14235;SDS011;7202;50.718;7.072;2023-06-14T11:19:50;4.03;;;2.05;;
14235;SDS011;7202;50.718;7.072;2023-06-14T11:22:39;2.78;;;2.33;;
14235;SDS011;7202;50.718;7.072;2023-06-14T11:25:09;2.72;;;2.00;;
14235;SDS011;7202;50.718;7.072;2023-06-14T11:27:38;3.10;;;2.17;;
14235;SDS011;7202;50.718;7.072;2023-06-14T11:30:07;2.22;;;2.03;;
14235;SDS011;7202;50.718;7.072;2023-06-14T11:32:36;2.88;;;2.00;;
14235;SDS011;7202;50.718;7.072;2023-06-14T11:35:07;3.53;;;2.00;;
14235;SDS011;7202;50.718;7.072;2023-06-14T11:37:37;3.03;;;2.03;;
14235;SDS011;7202;50.718;7.072;2023-06-14T11:40:07;2.40;;;2.20;;
14235;SDS011;7202;50.718;7.072;2023-06-14T11:42:37;2.75;;;1.90;;
14235;SDS011;7202;50.718;7.072;2023-06-14T11:45:07;3.97;;;2.00;;
14235;SDS011;7202;50.718;7.072;2023-06-14T11:47:37;3.33;;;2.05;;
14235;SDS011;7202;50.718;7.072;2023-06-14T11:50:08;2.63;;;2.20;;
14235;SDS011;7202;50.718;7.072;2023-06-14T11:52:37;2.42;;;1.90;;
14235;SDS011;7202;50.718;7.072;2023-06-14T11:55:06;2.88;;;1.80;;
14235;SDS011;7202;50.718;7.072;2023-06-14T11:57:36;1.77;;;1.60;;
14235;SDS011;7202;50.718;7.072;2023-06-14T12:00:06;5.90;;;1.63;;
14235;SDS011;7202;50.718;7.072;2023-06-14T12:02:41;2.20;;;1.40;;
14235;SDS011;7202;50.718;7.072;2023-06-14T12:05:11;2.05;;;1.50;;
14235;SDS011;7202;50.718;7.072;2023-06-14T12:07:40;5.72;;;1.58;;
14235;SDS011;7202;50.718;7.072;2023-06-14T12:10:13;1.63;;;1.50;;
14235;SDS011;7202;50.718;7.072;2023-06-14T12:12:42;2.28;;;1.38;;
14235;SDS011;7202;50.718;7.072;2023-06-14T12:15:11;1.60;;;1.50;;
14235;SDS011;7202;50.718;7.072;2023-06-14T12:17:41;1.50;;;1.40;;
14235;SDS011;7202;50.718;7.072;2023-06-14T12:20:13;2.60;;;1.45;;
14235;SDS011;7202;50.718;7.072;2023-06-14T12:22:52;1.63;;;1.30;;
14235;SDS011;7202;50.718;7.072;2023-06-14T12:25:23;4.63;;;1.50;;
14235;SDS011;7202;50.718;7.072;2023-06-14T12:27:55;1.92;;;1.55;;
14235;SDS011;7202;50.718;7.072;2023-06-14T12:30:23;1.75;;;1.20;;
14235;SDS011;7202;50.718;7.072;2023-06-14T12:32:52;4.55;;;1.50;;
14235;SDS011;7202;50.718;7.072;2023-06-14T12:35:22;2.08;;;1.55;;
14235;SDS011;7202;50.718;7.072;2023-06-14T12:37:51;2.30;;;1.25;;
14235;SDS011;7202;50.718;7.072;2023-06-14T12:40:22;2.08;;;1.60;;
14235;SDS011;7202;50.718;7.072;2023-06-14T12:42:50;1.40;;;1.30;;
14235;SDS011;7202;50.718;7.072;2023-06-14T12:45:19;4.75;;;1.45;;
14235;SDS011;7202;50.718;7.072;2023-06-14T12:47:48;2.22;;;1.48;;
14235;SDS011;7202;50.718;7.072;2023-06-14T12:50:16;1.55;;;1.45;;
14235;SDS011;7202;50.718;7.072;2023-06-14T12:52:48;3.97;;;1.85;;
14235;SDS011;7202;50.718;7.072;2023-06-14T12:55:16;4.10;;;1.40;;
14235;SDS011;7202;50.718;7.072;2023-06-14T12:57:46;1.52;;;1.42;;
14235;SDS011;7202;50.718;7.072;2023-06-14T13:00:17;1.60;;;1.50;;
14235;SDS011;7202;50.718;7.072;2023-06-14T13:02:46;4.13;;;1.30;;
14235;SDS011;7202;50.718;7.072;2023-06-14T13:05:15;2.20;;;1.40;;
14235;SDS011;7202;50.718;7.072;2023-06-14T13:07:44;1.30;;;1.10;;
14235;SDS011;7202;50.718;7.072;2023-06-14T13:10:14;3.40;;;1.40;;
14235;SDS011;7202;50.718;7.072;2023-06-14T13:12:44;1.42;;;1.33;;
14235;SDS011;7202;50.718;7.072;2023-06-14T13:15:13;4.32;;;1.63;;
14235;SDS011;7202;50.718;7.072;2023-06-14T13:17:41;1.70;;;1.60;;
14235;SDS011;7202;50.718;7.072;2023-06-14T13:20:15;2.05;;;1.58;;
14235;SDS011;7202;50.718;7.072;2023-06-14T13:22:46;1.70;;;1.60;;
14235;SDS011;7202;50.718;7.072;2023-06-14T13:25:17;2.22;;;1.70;;
14235;SDS011;7202;50.718;7.072;2023-06-14T13:27:46;3.53;;;1.83;;
14235;SDS011;7202;50.718;7.072;2023-06-14T13:30:14;2.60;;;1.60;;
14235;SDS011;7202;50.718;7.072;2023-06-14T13:32:43;4.32;;;1.80;;
14235;SDS011;7202;50.718;7.072;2023-06-14T13:35:16;1.75;;;1.50;;
14235;SDS011;7202;50.718;7.072;2023-06-14T13:37:45;7.72;;;1.73;;
14235;SDS011;7202;50.718;7.072;2023-06-14T13:40:13;3.78;;;1.77;;
14235;SDS011;7202;50.718;7.072;2023-06-14T13:42:44;3.88;;;1.73;;
14235;SDS011;7202;50.718;7.072;2023-06-14T13:45:15;1.80;;;1.70;;
14235;SDS011;7202;50.718;7.072;2023-06-14T13:47:44;3.92;;;1.80;;
14235;SDS011;7202;50.718;7.072;2023-06-14T13:50:15;2.40;;;1.73;;
14235;SDS011;7202;50.718;7.072;2023-06-14T13:52:45;4.47;;;1.90;;
14235;SDS011;7202;50.718;7.072;2023-06-14T13:55:13;2.65;;;1.67;;
14235;SDS011;7202;50.718;7.072;2023-06-14T13:57:43;2.40;;;1.90;;
14235;SDS011;7202;50.718;7.072;2023-06-14T14:00:13;2.80;;;2.10;;
14235;SDS011;7202;50.718;7.072;2023-06-14T14:02:42;3.47;;;1.92;;
14235;SDS011;7202;50.718;7.072;2023-06-14T14:05:12;2.72;;;1.88;;
14235;SDS011;7202;50.718;7.072;2023-06-14T14:07:40;2.80;;;1.83;;
14235;SDS011;7202;50.718;7.072;2023-06-14T14:10:09;4.30;;;1.95;;
14235;SDS011;7202;50.718;7.072;2023-06-14T14:12:40;4.07;;;2.15;;
14235;SDS011;7202;50.718;7.072;2023-06-14T14:15:10;2.60;;;1.98;;
14235;SDS011;7202;50.718;7.072;2023-06-14T14:17:41;2.13;;;1.95;;
14235;SDS011;7202;50.718;7.072;2023-06-14T14:20:10;4.25;;;2.30;;
14235;SDS011;7202;50.718;7.072;2023-06-14T14:22:42;3.25;;;2.00;;
14235;SDS011;7202;50.718;7.072;2023-06-14T14:25:11;4.53;;;2.10;;
14235;SDS011;7202;50.718;7.072;2023-06-14T14:27:41;4.05;;;2.05;;
14235;SDS011;7202;50.718;7.072;2023-06-14T14:30:11;2.28;;;2.03;;
14235;SDS011;7202;50.718;7.072;2023-06-14T14:32:41;2.28;;;2.08;;
14235;SDS011;7202;50.718;7.072;2023-06-14T14:35:11;2.20;;;1.60;;
14235;SDS011;7202;50.718;7.072;2023-06-14T14:37:39;1.70;;;1.60;;
14235;SDS011;7202;50.718;7.072;2023-06-14T14:40:08;3.42;;;1.98;;
14235;SDS011;7202;50.718;7.072;2023-06-14T14:42:37;7.00;;;1.80;;
14235;SDS011;7202;50.718;7.072;2023-06-14T14:45:06;2.60;;;2.30;;
14235;SDS011;7202;50.718;7.072;2023-06-14T14:47:37;2.58;;;1.88;;
14235;SDS011;7202;50.718;7.072;2023-06-14T14:50:06;3.22;;;1.95;;
14235;SDS011;7202;50.718;7.072;2023-06-14T14:52:36;15.07;;;2.30;;
14235;SDS011;7202;50.718;7.072;2023-06-14T14:55:05;4.00;;;2.03;;
14235;SDS011;7202;50.718;7.072;2023-06-14T14:57:34;3.22;;;2.10;;
14235;SDS011;7202;50.718;7.072;2023-06-14T15:00:03;6.90;;;2.10;;
14235;SDS011;7202;50.718;7.072;2023-06-14T15:02:33;2.55;;;2.00;;
14235;SDS011;7202;50.718;7.072;2023-06-14T15:05:03;5.78;;;2.22;;
14235;SDS011;7202;50.718;7.072;2023-06-14T15:07:32;4.07;;;1.90;;
14235;SDS011;7202;50.718;7.072;2023-06-14T15:10:01;4.13;;;1.80;;
14235;SDS011;7202;50.718;7.072;2023-06-14T15:12:31;2.38;;;2.08;;
14235;SDS011;7202;50.718;7.072;2023-06-14T15:15:00;3.55;;;1.90;;
14235;SDS011;7202;50.718;7.072;2023-06-14T15:17:29;2.28;;;2.00;;
14235;SDS011;7202;50.718;7.072;2023-06-14T15:19:58;5.28;;;2.00;;
14235;SDS011;7202;50.718;7.072;2023-06-14T15:22:28;4.13;;;2.20;;
14235;SDS011;7202;50.718;7.072;2023-06-14T15:24:56;4.00;;;1.90;;